createdAt,value
2022-12-31T00:01:21.135Z,75.28
2022-12-31T00:03:49.291Z,75.40
2022-12-31T00:06:20.649Z,75.56
2022-12-31T00:08:50.042Z,75.43
2022-12-31T00:11:18.810Z,75.21
2022-12-31T00:13:47.118Z,75.35
2022-12-31T00:16:20.987Z,75.49
2022-12-31T00:18:51.242Z,75.72
2022-12-31T00:21:20.786Z,75.79
2022-12-31T00:23:49.111Z,75.74
2022-12-31T00:26:21.127Z,75.78
2022-12-31T00:28:49.145Z,75.76
2022-12-31T00:31:23.318Z,75.69
2022-12-31T00:33:51.435Z,75.38
2022-12-31T00:36:23.433Z,75.53
2022-12-31T00:38:52.429Z,75.56
2022-12-31T00:41:22.206Z,75.68
2022-12-31T00:43:50.375Z,75.86
2022-12-31T00:46:19.725Z,75.88
2022-12-31T00:48:51.517Z,75.84
2022-12-31T00:51:21.888Z,76.07
2022-12-31T00:53:49.586Z,76.15
2022-12-31T00:56:23.783Z,76.10
2022-12-31T00:58:52.992Z,76.25
2022-12-31T01:01:27.322Z,76.29
2022-12-31T01:04:00.882Z,76.31
2022-12-31T01:06:28.800Z,76.09
2022-12-31T01:08:56.666Z,75.80
2022-12-31T01:11:29.070Z,75.84
2022-12-31T01:14:01.294Z,75.84
2022-12-31T01:16:53.653Z,75.85
2022-12-31T01:19:25.107Z,75.88
2022-12-31T01:21:53.577Z,75.96
2022-12-31T01:24:21.611Z,75.91
2022-12-31T01:26:49.307Z,75.85
2022-12-31T01:29:17.168Z,75.65
2022-12-31T01:31:45.045Z,75.79
2022-12-31T01:34:19.023Z,75.76
2022-12-31T01:36:46.715Z,75.81
2022-12-31T01:39:14.557Z,75.93
2022-12-31T01:41:45.117Z,75.72
2022-12-31T01:44:13.040Z,75.70
2022-12-31T01:46:56.537Z,75.59
2022-12-31T01:50:20.053Z,75.37
2022-12-31T01:52:51.558Z,75.33
2022-12-31T01:55:32.718Z,75.28
2022-12-31T01:58:06.715Z,75.23
2022-12-31T02:00:34.709Z,75.25
2022-12-31T02:03:05.517Z,75.11
2022-12-31T02:05:38.595Z,75.26
2022-12-31T02:08:07.751Z,75.34
2022-12-31T02:10:36.031Z,75.26
2022-12-31T02:13:04.341Z,75.49
2022-12-31T02:15:37.783Z,75.40
2022-12-31T02:18:26.857Z,75.14
2022-12-31T02:21:07.885Z,75.13
2022-12-31T02:23:45.442Z,74.99
2022-12-31T02:26:45.300Z,74.92
2022-12-31T02:29:31.129Z,74.98
2022-12-31T02:32:05.431Z,74.86
2022-12-31T02:34:57.103Z,74.94
2022-12-31T02:37:28.914Z,75.02
2022-12-31T02:39:57.637Z,74.95
2022-12-31T02:42:25.390Z,74.89
2022-12-31T02:44:53.037Z,74.73
2022-12-31T02:47:32.309Z,74.61
2022-12-31T02:50:18.574Z,74.75
2022-12-31T02:53:09.987Z,74.71
2022-12-31T02:55:55.772Z,74.99
2022-12-31T02:58:50.344Z,75.14
2022-12-31T03:01:49.324Z,75.13
2022-12-31T03:04:34.010Z,75.18
2022-12-31T03:07:05.043Z,75.27
2022-12-31T03:09:33.807Z,75.01
2022-12-31T03:12:21.166Z,74.92
2022-12-31T03:14:48.879Z,74.88
2022-12-31T03:17:16.554Z,75.01
2022-12-31T03:20:19.611Z,75.02
2022-12-31T03:22:47.224Z,74.93
2022-12-31T03:25:38.079Z,75.23
2022-12-31T03:28:12.506Z,75.27
2022-12-31T03:30:42.341Z,75.61
2022-12-31T03:33:10.478Z,75.79
2022-12-31T03:35:39.852Z,75.71
2022-12-31T03:38:07.857Z,75.65
2022-12-31T03:40:44.809Z,75.54
2022-12-31T03:43:12.583Z,75.67
2022-12-31T03:45:40.789Z,75.63
2022-12-31T03:48:09.890Z,75.65
2022-12-31T03:50:37.516Z,75.74
2022-12-31T03:53:06.748Z,75.76
2022-12-31T03:55:34.910Z,75.77
2022-12-31T03:58:02.847Z,75.61
2022-12-31T04:00:30.833Z,75.69
2022-12-31T04:02:58.670Z,75.78
2022-12-31T04:05:27.226Z,75.59
2022-12-31T04:07:55.863Z,75.72
2022-12-31T04:10:31.877Z,75.50
2022-12-31T04:13:02.364Z,75.58
2022-12-31T04:15:30.130Z,75.56
2022-12-31T04:17:57.796Z,75.60
2022-12-31T04:20:25.433Z,75.50
2022-12-31T04:22:53.380Z,75.53
2022-12-31T04:25:20.984Z,75.41
2022-12-31T04:27:48.569Z,75.58
2022-12-31T04:30:16.681Z,75.50
2022-12-31T04:32:44.372Z,75.54
2022-12-31T04:35:12.020Z,75.61
2022-12-31T04:37:39.635Z,75.43
2022-12-31T04:40:08.471Z,75.28
2022-12-31T04:42:36.351Z,75.38
2022-12-31T04:45:04.799Z,75.17
2022-12-31T04:47:32.381Z,75.19
2022-12-31T04:49:59.993Z,75.05
2022-12-31T04:52:27.599Z,75.21
2022-12-31T04:54:55.164Z,75.22
2022-12-31T04:57:23.770Z,75.32
2022-12-31T04:59:54.167Z,75.03
2022-12-31T05:02:22.122Z,75.04
2022-12-31T05:04:49.997Z,74.82
2022-12-31T05:07:17.890Z,74.77
2022-12-31T05:09:46.067Z,74.81
2022-12-31T05:12:13.626Z,74.85
2022-12-31T05:14:41.556Z,74.73
2022-12-31T05:17:09.659Z,74.71
2022-12-31T05:19:37.321Z,74.58
2022-12-31T05:22:24.103Z,74.21
2022-12-31T05:26:36.780Z,74.18
2022-12-31T05:29:05.362Z,74.06
2022-12-31T05:31:33.639Z,74.12
2022-12-31T05:34:04.220Z,74.00
2022-12-31T05:36:32.278Z,73.93
2022-12-31T05:38:59.884Z,73.89
2022-12-31T05:41:27.862Z,73.76
2022-12-31T05:43:55.778Z,73.36
2022-12-31T05:46:23.419Z,73.52
2022-12-31T05:48:51.634Z,73.45
2022-12-31T05:51:19.368Z,73.48
2022-12-31T05:53:46.908Z,73.26
2022-12-31T05:56:14.991Z,73.16
2022-12-31T05:58:46.688Z,73.12
2022-12-31T06:01:16.011Z,72.99
2022-12-31T06:03:43.976Z,72.89
2022-12-31T06:06:11.807Z,72.94
2022-12-31T06:08:39.750Z,72.96
2022-12-31T06:11:07.872Z,72.90
2022-12-31T06:13:35.859Z,72.97
2022-12-31T06:16:09.236Z,72.96
2022-12-31T06:18:37.679Z,73.05
2022-12-31T06:21:07.002Z,73.03
2022-12-31T06:23:34.883Z,72.85
2022-12-31T06:26:04.659Z,72.71
2022-12-31T06:28:33.164Z,72.87
2022-12-31T06:31:05.568Z,72.73
2022-12-31T06:33:35.029Z,72.75
2022-12-31T06:36:05.303Z,72.94
2022-12-31T06:38:34.938Z,72.80
2022-12-31T06:41:08.201Z,72.73
2022-12-31T06:43:37.842Z,72.75
2022-12-31T06:46:08.939Z,72.82
2022-12-31T06:48:38.326Z,72.74
2022-12-31T06:51:16.780Z,72.53
2022-12-31T06:53:47.811Z,72.54
2022-12-31T06:56:20.585Z,72.41
2022-12-31T06:58:49.084Z,72.49
2022-12-31T07:01:36.217Z,72.35
2022-12-31T07:04:14.558Z,72.43
2022-12-31T07:07:08.251Z,72.28
2022-12-31T07:10:00.427Z,72.12
2022-12-31T07:12:34.329Z,72.11
2022-12-31T07:15:27.629Z,72.17
2022-12-31T07:18:04.852Z,72.08
2022-12-31T07:20:32.840Z,72.00
2022-12-31T07:23:00.817Z,71.82
2022-12-31T07:25:29.503Z,71.80
2022-12-31T07:28:52.897Z,71.62
2022-12-31T07:31:42.001Z,71.64
2022-12-31T07:34:15.815Z,71.63
2022-12-31T07:36:46.372Z,71.67
2022-12-31T07:39:35.425Z,71.56
2022-12-31T07:42:14.537Z,71.61
2022-12-31T07:44:56.417Z,71.49
2022-12-31T07:47:27.325Z,71.59
2022-12-31T07:49:56.119Z,71.62
2022-12-31T07:52:24.716Z,71.63
2022-12-31T07:54:52.704Z,71.66
2022-12-31T07:57:22.976Z,71.63
2022-12-31T08:00:11.141Z,71.61
2022-12-31T08:03:17.851Z,71.56
2022-12-31T08:06:14.932Z,71.32
2022-12-31T08:09:27.009Z,71.47
2022-12-31T08:11:59.535Z,71.41
2022-12-31T08:14:29.276Z,71.20
2022-12-31T08:16:58.248Z,71.22
2022-12-31T08:19:31.888Z,70.97
2022-12-31T08:22:23.008Z,70.88
2022-12-31T08:25:02.791Z,70.96
2022-12-31T08:27:56.335Z,70.88
2022-12-31T08:30:37.061Z,70.84
2022-12-31T08:33:24.644Z,70.77
2022-12-31T08:35:52.278Z,70.84
2022-12-31T08:38:44.206Z,70.84
2022-12-31T08:41:26.604Z,70.96
2022-12-31T08:44:11.362Z,70.85
2022-12-31T08:47:01.781Z,70.79
2022-12-31T08:49:33.443Z,70.72
2022-12-31T08:52:02.291Z,70.79
2022-12-31T08:54:30.353Z,70.69
2022-12-31T08:57:15.971Z,70.65
2022-12-31T08:59:56.456Z,70.57
2022-12-31T09:02:42.064Z,70.47
2022-12-31T09:05:30.708Z,70.57
2022-12-31T09:08:07.762Z,70.47
2022-12-31T09:10:46.206Z,70.51
2022-12-31T09:13:30.816Z,70.52
2022-12-31T09:16:07.481Z,70.52
2022-12-31T09:18:39.872Z,70.38
2022-12-31T09:21:10.795Z,70.24
2022-12-31T09:23:38.915Z,70.20
2022-12-31T09:26:19.504Z,70.09
2022-12-31T09:28:49.983Z,70.23
2022-12-31T09:31:28.055Z,70.24
2022-12-31T09:34:05.969Z,70.16
2022-12-31T09:36:41.939Z,70.21
2022-12-31T09:39:23.005Z,70.01
2022-12-31T09:41:53.342Z,69.94
2022-12-31T09:44:39.000Z,69.87
2022-12-31T09:47:40.171Z,69.71
2022-12-31T09:50:30.255Z,69.80
2022-12-31T09:53:13.419Z,69.72
2022-12-31T09:55:59.454Z,69.52
2022-12-31T09:59:49.452Z,69.40
2022-12-31T10:03:35.294Z,69.43
2022-12-31T10:06:45.492Z,69.37
2022-12-31T10:10:09.049Z,69.16
2022-12-31T10:13:29.067Z,69.22
2022-12-31T10:16:49.059Z,69.03
2022-12-31T10:20:16.814Z,68.90
2022-12-31T10:23:37.380Z,68.76
2022-12-31T10:27:15.871Z,68.58
2022-12-31T10:30:19.677Z,68.29
2022-12-31T10:33:32.476Z,68.30
2022-12-31T10:36:51.247Z,67.98
2022-12-31T10:40:06.077Z,67.96
2022-12-31T10:43:25.960Z,67.73
2022-12-31T10:46:50.432Z,67.61
2022-12-31T10:50:29.497Z,67.46
2022-12-31T10:54:05.682Z,67.34
2022-12-31T10:57:15.889Z,67.40
2022-12-31T11:00:21.477Z,67.22
2022-12-31T11:03:44.763Z,67.19
2022-12-31T11:07:22.935Z,67.09
2022-12-31T11:10:51.103Z,66.96
2022-12-31T11:14:04.522Z,66.81
2022-12-31T11:17:19.649Z,66.75
2022-12-31T11:20:38.983Z,66.62
2022-12-31T11:24:04.820Z,66.45
2022-12-31T11:27:49.699Z,66.58
2022-12-31T11:31:02.083Z,66.35
2022-12-31T11:34:41.024Z,66.32
2022-12-31T11:38:00.960Z,66.07
2022-12-31T11:41:10.483Z,66.01
2022-12-31T11:44:39.453Z,66.00
2022-12-31T11:48:33.924Z,65.71
2022-12-31T11:52:32.010Z,65.86
2022-12-31T11:55:47.883Z,65.66
2022-12-31T11:58:53.016Z,65.61
2022-12-31T12:02:01.911Z,65.28
2022-12-31T12:05:11.779Z,65.43
2022-12-31T12:08:17.196Z,65.11
2022-12-31T12:11:27.231Z,65.04
2022-12-31T12:14:38.756Z,64.91
2022-12-31T12:17:41.488Z,64.73
2022-12-31T12:20:46.600Z,64.68
2022-12-31T12:24:01.521Z,64.38
2022-12-31T12:27:04.290Z,64.26
2022-12-31T12:30:18.175Z,64.20
2022-12-31T12:33:21.829Z,64.29
2022-12-31T12:36:24.419Z,64.15
2022-12-31T12:39:30.236Z,64.04
2022-12-31T12:42:33.043Z,63.96
2022-12-31T12:45:50.721Z,63.78
2022-12-31T12:48:56.666Z,63.44
2022-12-31T12:52:16.905Z,63.51
2022-12-31T12:55:47.012Z,63.40
2022-12-31T12:59:20.809Z,63.20
2022-12-31T13:03:01.527Z,62.89
2022-12-31T13:06:42.629Z,62.60
2022-12-31T13:09:57.521Z,62.57
2022-12-31T13:13:25.791Z,62.55
2022-12-31T13:17:10.596Z,62.31
2022-12-31T13:20:18.871Z,62.26
2022-12-31T13:23:47.286Z,62.13
2022-12-31T13:27:08.075Z,62.25
2022-12-31T13:30:35.322Z,62.27
2022-12-31T13:33:43.278Z,62.24
2022-12-31T13:36:48.622Z,62.15
2022-12-31T13:40:07.228Z,62.19
2022-12-31T13:43:36.779Z,62.28
2022-12-31T13:47:19.721Z,62.23
2022-12-31T13:50:29.578Z,62.10
2022-12-31T13:53:44.947Z,62.16
2022-12-31T13:56:50.166Z,61.99
2022-12-31T14:00:56.881Z,62.01
2022-12-31T14:04:29.628Z,61.99
2022-12-31T14:07:45.305Z,61.96
2022-12-31T14:10:57.494Z,62.01
2022-12-31T14:14:30.991Z,61.99
2022-12-31T14:17:58.015Z,62.10
2022-12-31T14:21:18.210Z,62.16
2022-12-31T14:24:51.198Z,62.16
2022-12-31T14:27:56.490Z,62.10
2022-12-31T14:31:12.936Z,62.02
2022-12-31T14:34:45.481Z,61.99
2022-12-31T14:38:19.300Z,61.99
2022-12-31T14:41:33.828Z,62.06
2022-12-31T14:45:06.280Z,62.00
2022-12-31T14:48:37.689Z,61.98
2022-12-31T14:51:40.318Z,62.20
2022-12-31T14:54:42.903Z,62.09
2022-12-31T14:58:26.022Z,61.99
2022-12-31T15:01:43.207Z,62.11
2022-12-31T15:04:46.908Z,62.22
2022-12-31T15:07:49.419Z,62.31
2022-12-31T15:11:07.290Z,62.28
2022-12-31T15:14:36.839Z,62.43
2022-12-31T15:18:02.999Z,62.34
2022-12-31T15:21:21.255Z,62.11
2022-12-31T15:24:27.384Z,62.27
2022-12-31T15:27:33.051Z,62.10
2022-12-31T15:30:40.372Z,62.30
2022-12-31T15:34:00.149Z,62.21
2022-12-31T15:37:06.599Z,62.30
2022-12-31T15:40:15.407Z,62.38
2022-12-31T15:43:33.990Z,62.42
2022-12-31T15:46:40.485Z,62.53
2022-12-31T15:49:46.652Z,62.62
2022-12-31T15:52:55.869Z,62.53
2022-12-31T15:56:04.246Z,62.46
2022-12-31T15:59:14.906Z,62.63
2022-12-31T16:02:25.139Z,62.70
2022-12-31T16:05:35.722Z,62.72
2022-12-31T16:08:43.954Z,62.59
2022-12-31T16:11:48.623Z,62.52
2022-12-31T16:14:54.869Z,62.55
2022-12-31T16:18:37.698Z,62.60
2022-12-31T16:21:40.475Z,62.52
2022-12-31T16:25:28.334Z,62.66
2022-12-31T16:28:14.521Z,62.72
2022-12-31T16:31:20.054Z,62.75
2022-12-31T16:34:26.145Z,62.81
2022-12-31T16:37:29.230Z,62.84
2022-12-31T16:40:32.983Z,62.90
2022-12-31T16:43:38.230Z,63.01
2022-12-31T16:46:40.974Z,62.90
2022-12-31T16:49:48.697Z,62.90
2022-12-31T16:52:59.034Z,62.91
2022-12-31T16:56:09.077Z,62.63
2022-12-31T16:59:41.023Z,62.78
2022-12-31T17:02:49.598Z,62.71
2022-12-31T17:05:59.712Z,62.66
2022-12-31T17:09:10.891Z,62.79
2022-12-31T17:12:16.541Z,62.64
2022-12-31T17:15:23.817Z,62.48
2022-12-31T17:18:35.584Z,62.59
2022-12-31T17:21:38.385Z,62.57
2022-12-31T17:24:41.391Z,62.60
2022-12-31T17:27:53.021Z,62.71
2022-12-31T17:31:01.448Z,62.77
2022-12-31T17:34:13.260Z,62.98
2022-12-31T17:37:22.806Z,63.15
2022-12-31T17:40:54.432Z,63.47
2022-12-31T17:43:57.739Z,63.54
2022-12-31T17:47:03.144Z,63.66
2022-12-31T17:50:17.048Z,63.76
2022-12-31T17:53:20.753Z,63.95
2022-12-31T17:56:25.015Z,64.10
2022-12-31T17:59:29.914Z,64.25
2022-12-31T18:02:33.320Z,64.44
2022-12-31T18:05:36.419Z,64.60
2022-12-31T18:08:39.091Z,64.52
2022-12-31T18:11:42.380Z,64.72
2022-12-31T18:14:47.016Z,64.79
2022-12-31T18:17:52.065Z,64.83
2022-12-31T18:21:01.185Z,64.83
2022-12-31T18:27:15.323Z,64.51
2022-12-31T18:30:18.248Z,64.50
2022-12-31T18:33:25.716Z,64.69
2022-12-31T18:36:29.135Z,64.57
2022-12-31T18:39:32.103Z,64.59
2022-12-31T18:42:34.646Z,64.51
2022-12-31T18:45:37.242Z,64.61
2022-12-31T18:48:41.460Z,64.61
2022-12-31T18:51:44.183Z,64.60
2022-12-31T18:54:47.572Z,64.73
2022-12-31T18:57:52.093Z,64.67
2022-12-31T19:00:54.722Z,64.68
2022-12-31T19:04:11.775Z,64.63
2022-12-31T19:07:15.993Z,64.63
2022-12-31T19:10:20.964Z,64.65
2022-12-31T19:13:23.692Z,64.61
2022-12-31T19:16:26.272Z,64.75
2022-12-31T19:19:29.061Z,64.83
2022-12-31T19:22:31.900Z,64.80
2022-12-31T19:25:35.889Z,64.78
2022-12-31T19:28:38.479Z,64.79
2022-12-31T19:31:41.076Z,64.71
2022-12-31T19:34:45.941Z,64.67
2022-12-31T19:37:51.382Z,64.84
2022-12-31T19:40:54.685Z,64.82
2022-12-31T19:43:57.432Z,64.80
2022-12-31T19:47:00.061Z,64.74
2022-12-31T19:50:05.990Z,64.59
2022-12-31T19:53:19.425Z,64.70
2022-12-31T19:56:21.967Z,64.67
2022-12-31T19:59:24.655Z,64.60
2022-12-31T20:02:27.358Z,64.50
2022-12-31T20:05:32.676Z,64.50
2022-12-31T20:08:37.963Z,64.49
2022-12-31T20:11:40.551Z,64.41
2022-12-31T20:14:43.073Z,64.42
2022-12-31T20:17:45.766Z,64.51
2022-12-31T20:20:55.326Z,64.51
2022-12-31T20:23:59.271Z,64.67
2022-12-31T20:27:03.245Z,64.66
2022-12-31T20:30:14.118Z,64.87
2022-12-31T20:33:19.193Z,65.08
2022-12-31T20:36:24.270Z,65.19
2022-12-31T20:39:26.842Z,65.21
2022-12-31T20:42:29.457Z,65.25
2022-12-31T20:45:32.043Z,65.25
2022-12-31T20:48:35.584Z,65.43
2022-12-31T20:51:39.096Z,65.34
2022-12-31T20:54:41.673Z,65.37
2022-12-31T20:57:44.291Z,65.54
2022-12-31T21:00:52.028Z,65.72
2022-12-31T21:04:10.879Z,65.78
2022-12-31T21:07:13.831Z,66.08
2022-12-31T21:10:17.061Z,66.26
2022-12-31T21:13:22.928Z,66.39
2022-12-31T21:16:26.766Z,66.40
2022-12-31T21:19:29.465Z,66.42
2022-12-31T21:22:33.793Z,66.49
2022-12-31T21:25:36.463Z,66.43
2022-12-31T21:28:39.598Z,66.49
2022-12-31T21:31:42.233Z,66.54
2022-12-31T21:34:55.258Z,66.61
2022-12-31T21:38:07.948Z,66.68
2022-12-31T21:41:34.019Z,66.70
2022-12-31T21:44:37.840Z,66.71
2022-12-31T21:47:59.486Z,66.64
2022-12-31T21:51:11.541Z,66.74
2022-12-31T21:54:34.067Z,66.82
2022-12-31T21:57:59.197Z,66.74
2022-12-31T22:01:46.848Z,66.73
2022-12-31T22:05:12.682Z,66.70
2022-12-31T22:08:12.553Z,66.63
2022-12-31T22:11:16.710Z,66.51
2022-12-31T22:14:19.930Z,66.59
2022-12-31T22:17:22.644Z,66.62
2022-12-31T22:20:27.854Z,66.60
2022-12-31T22:23:32.668Z,66.57
2022-12-31T22:26:35.555Z,66.50
2022-12-31T22:29:53.739Z,66.43
2022-12-31T22:32:57.043Z,66.12
2022-12-31T22:36:06.507Z,66.16
2022-12-31T22:39:14.218Z,66.35
2022-12-31T22:42:37.321Z,66.53
2022-12-31T22:45:54.977Z,66.56
2022-12-31T22:48:59.463Z,66.59
2022-12-31T22:52:05.716Z,66.54
2022-12-31T22:55:11.271Z,66.69
2022-12-31T22:58:14.319Z,66.80
2022-12-31T23:01:23.549Z,66.90
2022-12-31T23:04:26.498Z,66.78
2022-12-31T23:07:29.147Z,66.76
2022-12-31T23:10:50.381Z,66.76
2022-12-31T23:14:12.236Z,66.68
2022-12-31T23:17:44.084Z,66.57
2022-12-31T23:21:06.542Z,66.60
2022-12-31T23:24:18.072Z,66.50
2022-12-31T23:27:22.952Z,66.45
2022-12-31T23:30:25.743Z,66.37
2022-12-31T23:33:28.749Z,66.17
2022-12-31T23:36:31.550Z,66.28
2022-12-31T23:39:34.147Z,66.33
2022-12-31T23:42:36.760Z,66.29
2022-12-31T23:45:39.756Z,66.16
2022-12-31T23:49:14.754Z,66.08
2022-12-31T23:52:17.293Z,66.03
2022-12-31T23:55:20.393Z,66.11
2022-12-31T23:58:22.973Z,66.28
